Portada
METAR-TAF:

METAR-TAF

Aeropuertos :

Laván, Irán

latitud: 26-48-37N, longitud: 53-21-22E, altitud: 23 m

Observación

El informe se hizo hace 12 horas y 7 minutos, a las 15:00 UTC
Viento 4 kt del oeste
Temperatura 21°C
Humedad 83%
Presión 1012 hPa
Visibilidad: 7000 m
Escasas nubes a una altura de 2500 ft, Cumulus congestus.
Escasas nubes a una altura de 3000 ft

METAR: OIBV 111500Z 27004KT 7000 FEW025TCU FEW030 21/18 Q1012

Hora: 06:37 (03:07 UTC)


TAF: falta

Observaciones y pronósticos meteorológicos de más de 4000 aeropuertos (mensajes METAR y TAF).

Los puntos amarillos y rojos representan las estaciones disponibles.

Ponga el ratón en el punto deseado para ver el nombre de la estación.

Haga clic para ver las observaciones y los pronósticos meteorológicos.

Para cambiar el mapa : haga clic en los botones verdes con una cruz de color negro para hacer un zoom, en el botón verde con un guión para alejar o en las flechas verdes para mapas adyacentes.


METAR-TAF: